sensor_id;sensor_type;location;lat;lon;timestamp;P1;durP1;ratioP1;P2;durP2;ratioP2
19495;SDS011;9888;48.606;9.630;2023-05-31T00:00:37;9.27;;;3.00;;
19495;SDS011;9888;48.606;9.630;2023-05-31T00:03:06;8.37;;;2.87;;
19495;SDS011;9888;48.606;9.630;2023-05-31T00:05:33;9.93;;;2.80;;
19495;SDS011;9888;48.606;9.630;2023-05-31T00:08:00;8.70;;;3.00;;
19495;SDS011;9888;48.606;9.630;2023-05-31T00:10:27;13.07;;;3.00;;
19495;SDS011;9888;48.606;9.630;2023-05-31T00:12:54;9.40;;;3.10;;
19495;SDS011;9888;48.606;9.630;2023-05-31T00:15:21;8.17;;;2.53;;
19495;SDS011;9888;48.606;9.630;2023-05-31T00:17:48;12.00;;;3.30;;
19495;SDS011;9888;48.606;9.630;2023-05-31T00:20:15;10.13;;;3.00;;
19495;SDS011;9888;48.606;9.630;2023-05-31T00:22:43;9.57;;;3.13;;
19495;SDS011;9888;48.606;9.630;2023-05-31T00:25:10;9.80;;;3.07;;
19495;SDS011;9888;48.606;9.630;2023-05-31T00:27:37;11.30;;;2.60;;
19495;SDS011;9888;48.606;9.630;2023-05-31T00:30:08;10.43;;;3.10;;
19495;SDS011;9888;48.606;9.630;2023-05-31T00:32:37;8.47;;;3.13;;
19495;SDS011;9888;48.606;9.630;2023-05-31T00:35:04;9.17;;;2.70;;
19495;SDS011;9888;48.606;9.630;2023-05-31T00:37:33;14.60;;;3.50;;
19495;SDS011;9888;48.606;9.630;2023-05-31T00:40:05;9.77;;;2.83;;
19495;SDS011;9888;48.606;9.630;2023-05-31T00:42:34;11.00;;;2.80;;
19495;SDS011;9888;48.606;9.630;2023-05-31T00:45:01;8.90;;;2.97;;
19495;SDS011;9888;48.606;9.630;2023-05-31T00:47:28;8.70;;;2.73;;
19495;SDS011;9888;48.606;9.630;2023-05-31T00:49:55;10.07;;;2.70;;
19495;SDS011;9888;48.606;9.630;2023-05-31T00:52:25;9.27;;;2.93;;
19495;SDS011;9888;48.606;9.630;2023-05-31T00:54:53;10.00;;;3.20;;
19495;SDS011;9888;48.606;9.630;2023-05-31T00:57:20;9.10;;;2.70;;
19495;SDS011;9888;48.606;9.630;2023-05-31T00:59:52;8.43;;;2.80;;
19495;SDS011;9888;48.606;9.630;2023-05-31T01:02:20;10.10;;;2.60;;
19495;SDS011;9888;48.606;9.630;2023-05-31T01:04:48;10.67;;;3.10;;
19495;SDS011;9888;48.606;9.630;2023-05-31T01:07:17;7.93;;;2.90;;
19495;SDS011;9888;48.606;9.630;2023-05-31T01:09:44;8.90;;;2.93;;
19495;SDS011;9888;48.606;9.630;2023-05-31T01:17:42;9.70;;;2.87;;
19495;SDS011;9888;48.606;9.630;2023-05-31T01:20:27;11.90;;;3.10;;
19495;SDS011;9888;48.606;9.630;2023-05-31T01:26:16;8.80;;;2.47;;
19495;SDS011;9888;48.606;9.630;2023-05-31T01:29:04;9.40;;;2.70;;
19495;SDS011;9888;48.606;9.630;2023-05-31T01:31:35;10.87;;;2.83;;
19495;SDS011;9888;48.606;9.630;2023-05-31T01:34:03;7.77;;;2.73;;
19495;SDS011;9888;48.606;9.630;2023-05-31T01:36:31;9.10;;;2.80;;
19495;SDS011;9888;48.606;9.630;2023-05-31T01:38:58;8.57;;;2.97;;
19495;SDS011;9888;48.606;9.630;2023-05-31T01:41:28;8.30;;;2.63;;
19495;SDS011;9888;48.606;9.630;2023-05-31T01:43:58;8.80;;;2.63;;
19495;SDS011;9888;48.606;9.630;2023-05-31T01:46:26;9.07;;;2.80;;
19495;SDS011;9888;48.606;9.630;2023-05-31T01:48:53;9.30;;;2.80;;
19495;SDS011;9888;48.606;9.630;2023-05-31T01:51:20;9.70;;;2.90;;
19495;SDS011;9888;48.606;9.630;2023-05-31T01:53:49;9.67;;;2.60;;
19495;SDS011;9888;48.606;9.630;2023-05-31T01:56:16;9.40;;;2.63;;
19495;SDS011;9888;48.606;9.630;2023-05-31T01:58:48;8.67;;;2.70;;
19495;SDS011;9888;48.606;9.630;2023-05-31T02:01:17;10.37;;;2.90;;
19495;SDS011;9888;48.606;9.630;2023-05-31T02:03:45;7.77;;;2.50;;
19495;SDS011;9888;48.606;9.630;2023-05-31T02:06:14;8.77;;;2.97;;
19495;SDS011;9888;48.606;9.630;2023-05-31T02:08:41;8.30;;;2.43;;
19495;SDS011;9888;48.606;9.630;2023-05-31T02:11:07;8.17;;;2.63;;
19495;SDS011;9888;48.606;9.630;2023-05-31T02:13:34;11.63;;;2.80;;
19495;SDS011;9888;48.606;9.630;2023-05-31T02:16:01;8.17;;;2.40;;
19495;SDS011;9888;48.606;9.630;2023-05-31T02:18:31;8.70;;;2.70;;
19495;SDS011;9888;48.606;9.630;2023-05-31T02:20:59;9.03;;;2.77;;
19495;SDS011;9888;48.606;9.630;2023-05-31T02:23:26;13.50;;;2.57;;
19495;SDS011;9888;48.606;9.630;2023-05-31T02:25:54;9.23;;;2.53;;
19495;SDS011;9888;48.606;9.630;2023-05-31T02:28:21;7.83;;;2.73;;
19495;SDS011;9888;48.606;9.630;2023-05-31T02:30:55;10.40;;;2.77;;
19495;SDS011;9888;48.606;9.630;2023-05-31T02:33:23;10.07;;;2.47;;
19495;SDS011;9888;48.606;9.630;2023-05-31T02:35:51;9.00;;;2.80;;
19495;SDS011;9888;48.606;9.630;2023-05-31T02:38:22;8.60;;;2.97;;
19495;SDS011;9888;48.606;9.630;2023-05-31T02:40:50;9.77;;;3.03;;
19495;SDS011;9888;48.606;9.630;2023-05-31T02:43:18;11.10;;;2.80;;
19495;SDS011;9888;48.606;9.630;2023-05-31T02:45:45;10.10;;;3.07;;
19495;SDS011;9888;48.606;9.630;2023-05-31T02:48:12;7.20;;;2.50;;
19495;SDS011;9888;48.606;9.630;2023-05-31T02:50:40;8.67;;;2.60;;
19495;SDS011;9888;48.606;9.630;2023-05-31T02:53:07;7.40;;;2.40;;
19495;SDS011;9888;48.606;9.630;2023-05-31T02:55:34;8.50;;;2.90;;
19495;SDS011;9888;48.606;9.630;2023-05-31T02:58:05;13.43;;;3.33;;
19495;SDS011;9888;48.606;9.630;2023-05-31T03:00:34;8.90;;;3.00;;
19495;SDS011;9888;48.606;9.630;2023-05-31T03:03:01;9.63;;;3.00;;
19495;SDS011;9888;48.606;9.630;2023-05-31T03:05:27;9.00;;;2.67;;
19495;SDS011;9888;48.606;9.630;2023-05-31T03:07:55;9.43;;;2.57;;
19495;SDS011;9888;48.606;9.630;2023-05-31T03:10:22;10.17;;;2.90;;
19495;SDS011;9888;48.606;9.630;2023-05-31T03:12:50;9.50;;;2.50;;
19495;SDS011;9888;48.606;9.630;2023-05-31T03:15:18;8.33;;;2.50;;
19495;SDS011;9888;48.606;9.630;2023-05-31T03:17:47;10.30;;;2.60;;
19495;SDS011;9888;48.606;9.630;2023-05-31T03:20:14;8.07;;;2.70;;
19495;SDS011;9888;48.606;9.630;2023-05-31T03:22:41;8.80;;;2.40;;
19495;SDS011;9888;48.606;9.630;2023-05-31T03:25:08;12.13;;;2.97;;
19495;SDS011;9888;48.606;9.630;2023-05-31T03:27:36;9.10;;;2.97;;
19495;SDS011;9888;48.606;9.630;2023-05-31T03:30:03;8.83;;;2.77;;
19495;SDS011;9888;48.606;9.630;2023-05-31T03:32:31;19.23;;;3.20;;
19495;SDS011;9888;48.606;9.630;2023-05-31T03:34:58;8.80;;;2.70;;
19495;SDS011;9888;48.606;9.630;2023-05-31T03:37:26;10.53;;;2.73;;
19495;SDS011;9888;48.606;9.630;2023-05-31T03:39:53;8.20;;;2.60;;
19495;SDS011;9888;48.606;9.630;2023-05-31T03:42:20;13.87;;;2.90;;
19495;SDS011;9888;48.606;9.630;2023-05-31T03:44:47;7.37;;;2.13;;
19495;SDS011;9888;48.606;9.630;2023-05-31T03:47:13;9.70;;;2.80;;
19495;SDS011;9888;48.606;9.630;2023-05-31T03:49:41;7.47;;;2.60;;
19495;SDS011;9888;48.606;9.630;2023-05-31T03:52:09;8.50;;;2.80;;
19495;SDS011;9888;48.606;9.630;2023-05-31T03:54:38;8.40;;;2.60;;
19495;SDS011;9888;48.606;9.630;2023-05-31T03:57:05;8.90;;;2.37;;
19495;SDS011;9888;48.606;9.630;2023-05-31T03:59:33;11.93;;;3.20;;
19495;SDS011;9888;48.606;9.630;2023-05-31T04:02:01;8.03;;;2.33;;
19495;SDS011;9888;48.606;9.630;2023-05-31T04:04:29;8.57;;;2.40;;
19495;SDS011;9888;48.606;9.630;2023-05-31T04:06:56;12.23;;;3.47;;
19495;SDS011;9888;48.606;9.630;2023-05-31T04:09:23;7.80;;;2.67;;
19495;SDS011;9888;48.606;9.630;2023-05-31T04:11:51;8.90;;;2.40;;
19495;SDS011;9888;48.606;9.630;2023-05-31T04:14:18;8.87;;;2.37;;
19495;SDS011;9888;48.606;9.630;2023-05-31T04:19:53;8.90;;;2.60;;
19495;SDS011;9888;48.606;9.630;2023-05-31T04:22:20;11.57;;;2.93;;
19495;SDS011;9888;48.606;9.630;2023-05-31T04:24:48;16.50;;;3.20;;
19495;SDS011;9888;48.606;9.630;2023-05-31T04:27:16;9.70;;;2.90;;
19495;SDS011;9888;48.606;9.630;2023-05-31T04:29:44;9.30;;;2.70;;
19495;SDS011;9888;48.606;9.630;2023-05-31T04:32:12;9.90;;;3.23;;
19495;SDS011;9888;48.606;9.630;2023-05-31T04:34:42;13.40;;;3.00;;
19495;SDS011;9888;48.606;9.630;2023-05-31T04:37:09;10.27;;;2.97;;
19495;SDS011;9888;48.606;9.630;2023-05-31T04:39:36;11.50;;;2.83;;
19495;SDS011;9888;48.606;9.630;2023-05-31T04:42:03;13.13;;;2.87;;
19495;SDS011;9888;48.606;9.630;2023-05-31T04:44:31;10.60;;;2.90;;
19495;SDS011;9888;48.606;9.630;2023-05-31T04:46:58;12.00;;;2.70;;
19495;SDS011;9888;48.606;9.630;2023-05-31T04:49:26;12.57;;;2.80;;
19495;SDS011;9888;48.606;9.630;2023-05-31T04:51:53;20.77;;;3.00;;
19495;SDS011;9888;48.606;9.630;2023-05-31T04:54:19;13.40;;;2.70;;
19495;SDS011;9888;48.606;9.630;2023-05-31T04:56:46;12.90;;;2.90;;
19495;SDS011;9888;48.606;9.630;2023-05-31T04:59:14;11.40;;;3.30;;
19495;SDS011;9888;48.606;9.630;2023-05-31T05:01:41;14.07;;;3.23;;
19495;SDS011;9888;48.606;9.630;2023-05-31T05:04:10;12.50;;;2.90;;
19495;SDS011;9888;48.606;9.630;2023-05-31T05:06:39;13.93;;;3.60;;
19495;SDS011;9888;48.606;9.630;2023-05-31T05:09:07;10.50;;;3.07;;
19495;SDS011;9888;48.606;9.630;2023-05-31T05:11:35;10.53;;;2.80;;
19495;SDS011;9888;48.606;9.630;2023-05-31T05:14:02;19.40;;;3.20;;
19495;SDS011;9888;48.606;9.630;2023-05-31T05:16:30;8.73;;;3.00;;
19495;SDS011;9888;48.606;9.630;2023-05-31T05:18:58;18.67;;;3.10;;
19495;SDS011;9888;48.606;9.630;2023-05-31T05:21:26;10.23;;;3.10;;
19495;SDS011;9888;48.606;9.630;2023-05-31T05:23:54;10.40;;;3.73;;
19495;SDS011;9888;48.606;9.630;2023-05-31T05:26:21;13.37;;;3.30;;
19495;SDS011;9888;48.606;9.630;2023-05-31T05:28:49;8.57;;;2.80;;
19495;SDS011;9888;48.606;9.630;2023-05-31T05:31:16;10.83;;;3.20;;
19495;SDS011;9888;48.606;9.630;2023-05-31T05:33:43;9.53;;;3.00;;
19495;SDS011;9888;48.606;9.630;2023-05-31T05:36:10;10.93;;;3.30;;
19495;SDS011;9888;48.606;9.630;2023-05-31T05:38:38;14.70;;;3.20;;
19495;SDS011;9888;48.606;9.630;2023-05-31T05:41:06;10.37;;;2.97;;
19495;SDS011;9888;48.606;9.630;2023-05-31T05:43:37;10.67;;;3.27;;
19495;SDS011;9888;48.606;9.630;2023-05-31T05:46:06;12.03;;;2.93;;
19495;SDS011;9888;48.606;9.630;2023-05-31T05:48:33;13.70;;;3.27;;
19495;SDS011;9888;48.606;9.630;2023-05-31T05:51:01;9.40;;;3.30;;
19495;SDS011;9888;48.606;9.630;2023-05-31T05:53:29;11.30;;;3.17;;
19495;SDS011;9888;48.606;9.630;2023-05-31T05:55:59;11.77;;;3.20;;
19495;SDS011;9888;48.606;9.630;2023-05-31T05:58:26;14.50;;;3.70;;
19495;SDS011;9888;48.606;9.630;2023-05-31T06:00:53;24.10;;;3.77;;
19495;SDS011;9888;48.606;9.630;2023-05-31T06:03:21;15.40;;;3.33;;
19495;SDS011;9888;48.606;9.630;2023-05-31T06:05:52;9.73;;;3.40;;
19495;SDS011;9888;48.606;9.630;2023-05-31T06:08:19;12.03;;;3.87;;
19495;SDS011;9888;48.606;9.630;2023-05-31T06:10:47;15.13;;;3.37;;
19495;SDS011;9888;48.606;9.630;2023-05-31T06:13:15;10.50;;;3.60;;
19495;SDS011;9888;48.606;9.630;2023-05-31T06:15:42;34.87;;;4.60;;
19495;SDS011;9888;48.606;9.630;2023-05-31T06:18:10;8.37;;;2.90;;
19495;SDS011;9888;48.606;9.630;2023-05-31T06:20:37;11.93;;;3.50;;
19495;SDS011;9888;48.606;9.630;2023-05-31T06:26:17;12.47;;;3.30;;
19495;SDS011;9888;48.606;9.630;2023-05-31T06:28:46;13.53;;;3.27;;
19495;SDS011;9888;48.606;9.630;2023-05-31T06:31:14;9.97;;;3.73;;
19495;SDS011;9888;48.606;9.630;2023-05-31T06:33:41;11.47;;;4.03;;
19495;SDS011;9888;48.606;9.630;2023-05-31T06:36:11;10.30;;;3.47;;
19495;SDS011;9888;48.606;9.630;2023-05-31T06:38:38;40.23;;;5.83;;
19495;SDS011;9888;48.606;9.630;2023-05-31T06:41:06;195.30;;;16.47;;
19495;SDS011;9888;48.606;9.630;2023-05-31T06:43:35;70.43;;;9.70;;
19495;SDS011;9888;48.606;9.630;2023-05-31T06:46:03;23.30;;;5.30;;
19495;SDS011;9888;48.606;9.630;2023-05-31T06:48:35;25.93;;;4.87;;
19495;SDS011;9888;48.606;9.630;2023-05-31T06:51:02;14.60;;;3.10;;
19495;SDS011;9888;48.606;9.630;2023-05-31T06:53:29;10.87;;;4.00;;
19495;SDS011;9888;48.606;9.630;2023-05-31T06:55:55;9.87;;;3.60;;
19495;SDS011;9888;48.606;9.630;2023-05-31T06:58:23;11.10;;;3.53;;
19495;SDS011;9888;48.606;9.630;2023-05-31T07:00:54;12.30;;;3.67;;
19495;SDS011;9888;48.606;9.630;2023-05-31T07:03:22;10.27;;;3.43;;
19495;SDS011;9888;48.606;9.630;2023-05-31T07:05:49;9.43;;;3.13;;
19495;SDS011;9888;48.606;9.630;2023-05-31T07:08:16;15.33;;;3.73;;
19495;SDS011;9888;48.606;9.630;2023-05-31T07:10:43;12.13;;;3.47;;
19495;SDS011;9888;48.606;9.630;2023-05-31T07:13:16;11.13;;;3.40;;
19495;SDS011;9888;48.606;9.630;2023-05-31T07:15:43;10.17;;;4.03;;
19495;SDS011;9888;48.606;9.630;2023-05-31T07:18:10;8.63;;;3.10;;
19495;SDS011;9888;48.606;9.630;2023-05-31T07:27:22;9.47;;;3.13;;
19495;SDS011;9888;48.606;9.630;2023-05-31T07:29:49;12.67;;;3.67;;
19495;SDS011;9888;48.606;9.630;2023-05-31T07:32:18;16.80;;;3.63;;
19495;SDS011;9888;48.606;9.630;2023-05-31T07:34:45;10.77;;;3.63;;
19495;SDS011;9888;48.606;9.630;2023-05-31T07:37:13;11.97;;;3.30;;
19495;SDS011;9888;48.606;9.630;2023-05-31T07:39:40;13.73;;;4.00;;
19495;SDS011;9888;48.606;9.630;2023-05-31T07:42:09;12.60;;;3.37;;
19495;SDS011;9888;48.606;9.630;2023-05-31T07:44:38;16.87;;;3.80;;
19495;SDS011;9888;48.606;9.630;2023-05-31T07:47:06;9.00;;;3.30;;
19495;SDS011;9888;48.606;9.630;2023-05-31T07:49:34;11.77;;;3.37;;
19495;SDS011;9888;48.606;9.630;2023-05-31T07:52:03;9.97;;;3.30;;
19495;SDS011;9888;48.606;9.630;2023-05-31T07:54:31;21.13;;;3.63;;
19495;SDS011;9888;48.606;9.630;2023-05-31T07:57:00;11.70;;;3.23;;
19495;SDS011;9888;48.606;9.630;2023-05-31T07:59:28;14.40;;;3.50;;
19495;SDS011;9888;48.606;9.630;2023-05-31T08:01:56;10.37;;;3.10;;
19495;SDS011;9888;48.606;9.630;2023-05-31T08:04:24;9.73;;;3.40;;
19495;SDS011;9888;48.606;9.630;2023-05-31T08:06:52;8.53;;;3.13;;
19495;SDS011;9888;48.606;9.630;2023-05-31T08:09:20;10.63;;;3.10;;
19495;SDS011;9888;48.606;9.630;2023-05-31T08:12:08;10.30;;;3.30;;
19495;SDS011;9888;48.606;9.630;2023-05-31T08:14:37;10.83;;;3.30;;
19495;SDS011;9888;48.606;9.630;2023-05-31T08:17:06;12.43;;;3.20;;
19495;SDS011;9888;48.606;9.630;2023-05-31T08:19:35;10.30;;;3.30;;
19495;SDS011;9888;48.606;9.630;2023-05-31T08:22:02;11.70;;;3.63;;
19495;SDS011;9888;48.606;9.630;2023-05-31T08:24:32;17.33;;;3.87;;
19495;SDS011;9888;48.606;9.630;2023-05-31T08:27:00;9.37;;;3.57;;
19495;SDS011;9888;48.606;9.630;2023-05-31T08:29:27;10.50;;;3.37;;
19495;SDS011;9888;48.606;9.630;2023-05-31T08:31:54;15.53;;;3.70;;
19495;SDS011;9888;48.606;9.630;2023-05-31T08:34:22;11.57;;;3.70;;
19495;SDS011;9888;48.606;9.630;2023-05-31T08:36:50;10.50;;;3.40;;
19495;SDS011;9888;48.606;9.630;2023-05-31T08:39:19;9.30;;;3.60;;
19495;SDS011;9888;48.606;9.630;2023-05-31T08:41:52;10.83;;;3.93;;
19495;SDS011;9888;48.606;9.630;2023-05-31T08:44:31;9.47;;;3.60;;
19495;SDS011;9888;48.606;9.630;2023-05-31T08:47:08;11.10;;;3.63;;
19495;SDS011;9888;48.606;9.630;2023-05-31T08:50:04;16.60;;;4.13;;
19495;SDS011;9888;48.606;9.630;2023-05-31T08:55:56;11.43;;;3.70;;
19495;SDS011;9888;48.606;9.630;2023-05-31T08:58:27;8.93;;;3.50;;
19495;SDS011;9888;48.606;9.630;2023-05-31T09:00:56;11.50;;;4.13;;
19495;SDS011;9888;48.606;9.630;2023-05-31T09:03:30;12.80;;;3.70;;
19495;SDS011;9888;48.606;9.630;2023-05-31T09:05:58;8.67;;;3.20;;
19495;SDS011;9888;48.606;9.630;2023-05-31T09:08:27;15.50;;;4.00;;
19495;SDS011;9888;48.606;9.630;2023-05-31T09:11:04;10.43;;;3.37;;
19495;SDS011;9888;48.606;9.630;2023-05-31T09:13:34;8.20;;;3.53;;
19495;SDS011;9888;48.606;9.630;2023-05-31T09:16:02;12.23;;;3.63;;
19495;SDS011;9888;48.606;9.630;2023-05-31T09:18:39;10.73;;;3.63;;
19495;SDS011;9888;48.606;9.630;2023-05-31T09:21:09;10.50;;;3.23;;
19495;SDS011;9888;48.606;9.630;2023-05-31T09:23:56;15.17;;;3.93;;
19495;SDS011;9888;48.606;9.630;2023-05-31T09:26:25;8.90;;;3.67;;
19495;SDS011;9888;48.606;9.630;2023-05-31T09:28:55;12.20;;;3.70;;
19495;SDS011;9888;48.606;9.630;2023-05-31T09:31:23;11.17;;;4.20;;
19495;SDS011;9888;48.606;9.630;2023-05-31T09:33:51;10.50;;;3.70;;
19495;SDS011;9888;48.606;9.630;2023-05-31T09:36:27;17.37;;;4.53;;
19495;SDS011;9888;48.606;9.630;2023-05-31T09:39:03;9.70;;;3.77;;
19495;SDS011;9888;48.606;9.630;2023-05-31T09:41:34;9.97;;;3.80;;
19495;SDS011;9888;48.606;9.630;2023-05-31T09:44:08;11.43;;;3.13;;
19495;SDS011;9888;48.606;9.630;2023-05-31T09:46:40;11.53;;;3.60;;
19495;SDS011;9888;48.606;9.630;2023-05-31T09:49:08;12.10;;;4.30;;
19495;SDS011;9888;48.606;9.630;2023-05-31T09:51:37;10.57;;;3.40;;
19495;SDS011;9888;48.606;9.630;2023-05-31T09:54:09;11.80;;;3.63;;
19495;SDS011;9888;48.606;9.630;2023-05-31T09:56:38;10.30;;;4.47;;
19495;SDS011;9888;48.606;9.630;2023-05-31T09:59:09;11.60;;;4.03;;
19495;SDS011;9888;48.606;9.630;2023-05-31T10:01:38;10.80;;;3.87;;
19495;SDS011;9888;48.606;9.630;2023-05-31T10:04:06;10.27;;;3.57;;
19495;SDS011;9888;48.606;9.630;2023-05-31T10:06:35;9.60;;;3.50;;
19495;SDS011;9888;48.606;9.630;2023-05-31T10:09:04;10.20;;;3.40;;
19495;SDS011;9888;48.606;9.630;2023-05-31T10:11:36;11.83;;;3.93;;
19495;SDS011;9888;48.606;9.630;2023-05-31T10:14:17;8.70;;;3.57;;
19495;SDS011;9888;48.606;9.630;2023-05-31T10:16:56;9.83;;;3.43;;
19495;SDS011;9888;48.606;9.630;2023-05-31T10:19:34;13.53;;;3.87;;
19495;SDS011;9888;48.606;9.630;2023-05-31T10:22:06;14.73;;;3.70;;
19495;SDS011;9888;48.606;9.630;2023-05-31T10:24:48;9.97;;;3.40;;
19495;SDS011;9888;48.606;9.630;2023-05-31T10:27:36;10.07;;;3.50;;
19495;SDS011;9888;48.606;9.630;2023-05-31T10:30:06;9.30;;;3.87;;
19495;SDS011;9888;48.606;9.630;2023-05-31T10:32:42;14.47;;;3.83;;
19495;SDS011;9888;48.606;9.630;2023-05-31T10:35:13;10.80;;;3.63;;
19495;SDS011;9888;48.606;9.630;2023-05-31T10:37:42;11.57;;;3.77;;
19495;SDS011;9888;48.606;9.630;2023-05-31T10:40:15;10.67;;;3.60;;
19495;SDS011;9888;48.606;9.630;2023-05-31T10:45:34;9.70;;;3.17;;
19495;SDS011;9888;48.606;9.630;2023-05-31T10:51:11;9.93;;;3.80;;
19495;SDS011;9888;48.606;9.630;2023-05-31T10:53:40;11.60;;;3.50;;
19495;SDS011;9888;48.606;9.630;2023-05-31T10:56:14;12.27;;;3.30;;
19495;SDS011;9888;48.606;9.630;2023-05-31T10:58:53;8.73;;;3.10;;
19495;SDS011;9888;48.606;9.630;2023-05-31T11:01:22;12.73;;;3.60;;
19495;SDS011;9888;48.606;9.630;2023-05-31T11:03:57;8.30;;;3.00;;
19495;SDS011;9888;48.606;9.630;2023-05-31T11:06:30;10.93;;;3.23;;
19495;SDS011;9888;48.606;9.630;2023-05-31T11:09:08;10.10;;;3.30;;
19495;SDS011;9888;48.606;9.630;2023-05-31T11:14:07;12.57;;;3.83;;
19495;SDS011;9888;48.606;9.630;2023-05-31T11:19:28;9.07;;;3.50;;
19495;SDS011;9888;48.606;9.630;2023-05-31T11:22:35;13.37;;;3.70;;
19495;SDS011;9888;48.606;9.630;2023-05-31T11:25:00;11.90;;;3.40;;
19495;SDS011;9888;48.606;9.630;2023-05-31T11:27:39;9.67;;;3.17;;
19495;SDS011;9888;48.606;9.630;2023-05-31T11:30:15;8.60;;;2.83;;
19495;SDS011;9888;48.606;9.630;2023-05-31T11:35:10;9.87;;;2.97;;
19495;SDS011;9888;48.606;9.630;2023-05-31T11:37:43;10.03;;;3.07;;
19495;SDS011;9888;48.606;9.630;2023-05-31T11:40:11;35.53;;;5.97;;
19495;SDS011;9888;48.606;9.630;2023-05-31T11:42:42;16.17;;;5.13;;
19495;SDS011;9888;48.606;9.630;2023-05-31T11:45:11;14.27;;;3.33;;
19495;SDS011;9888;48.606;9.630;2023-05-31T11:50:11;10.00;;;3.10;;
19495;SDS011;9888;48.606;9.630;2023-05-31T11:52:42;8.93;;;4.37;;
19495;SDS011;9888;48.606;9.630;2023-05-31T11:55:14;8.30;;;3.13;;
19495;SDS011;9888;48.606;9.630;2023-05-31T11:57:45;9.60;;;3.17;;
19495;SDS011;9888;48.606;9.630;2023-05-31T12:00:19;12.20;;;3.60;;
19495;SDS011;9888;48.606;9.630;2023-05-31T12:02:51;11.40;;;3.43;;
19495;SDS011;9888;48.606;9.630;2023-05-31T12:05:20;16.50;;;3.63;;
19495;SDS011;9888;48.606;9.630;2023-05-31T12:07:52;7.90;;;2.60;;
19495;SDS011;9888;48.606;9.630;2023-05-31T12:10:31;8.60;;;3.20;;
19495;SDS011;9888;48.606;9.630;2023-05-31T12:12:58;11.10;;;2.83;;
19495;SDS011;9888;48.606;9.630;2023-05-31T12:15:32;24.20;;;3.93;;
19495;SDS011;9888;48.606;9.630;2023-05-31T12:18:04;9.20;;;3.17;;
19495;SDS011;9888;48.606;9.630;2023-05-31T12:20:33;11.60;;;3.10;;
19495;SDS011;9888;48.606;9.630;2023-05-31T12:26:17;8.53;;;3.13;;
19495;SDS011;9888;48.606;9.630;2023-05-31T12:28:46;8.47;;;3.20;;
19495;SDS011;9888;48.606;9.630;2023-05-31T12:31:23;9.47;;;2.87;;
19495;SDS011;9888;48.606;9.630;2023-05-31T12:34:07;7.83;;;3.43;;
19495;SDS011;9888;48.606;9.630;2023-05-31T12:36:42;7.93;;;3.13;;
19495;SDS011;9888;48.606;9.630;2023-05-31T12:39:14;9.87;;;3.47;;
19495;SDS011;9888;48.606;9.630;2023-05-31T12:41:45;10.93;;;3.20;;
19495;SDS011;9888;48.606;9.630;2023-05-31T12:44:14;8.57;;;3.60;;
19495;SDS011;9888;48.606;9.630;2023-05-31T12:46:45;10.10;;;3.57;;
19495;SDS011;9888;48.606;9.630;2023-05-31T12:49:24;9.33;;;3.37;;
19495;SDS011;9888;48.606;9.630;2023-05-31T12:54:38;8.70;;;3.47;;
19495;SDS011;9888;48.606;9.630;2023-05-31T12:57:07;11.23;;;3.40;;
19495;SDS011;9888;48.606;9.630;2023-05-31T12:59:35;8.87;;;3.20;;
19495;SDS011;9888;48.606;9.630;2023-05-31T13:02:07;8.00;;;3.20;;
19495;SDS011;9888;48.606;9.630;2023-05-31T13:04:35;8.00;;;2.70;;
19495;SDS011;9888;48.606;9.630;2023-05-31T13:07:03;14.10;;;3.67;;
19495;SDS011;9888;48.606;9.630;2023-05-31T13:09:30;8.93;;;3.20;;
19495;SDS011;9888;48.606;9.630;2023-05-31T13:11:58;8.47;;;3.30;;
19495;SDS011;9888;48.606;9.630;2023-05-31T13:14:27;7.90;;;3.00;;
19495;SDS011;9888;48.606;9.630;2023-05-31T13:16:56;23.03;;;5.67;;
19495;SDS011;9888;48.606;9.630;2023-05-31T13:19:23;9.80;;;3.53;;
19495;SDS011;9888;48.606;9.630;2023-05-31T13:21:51;8.13;;;3.23;;
19495;SDS011;9888;48.606;9.630;2023-05-31T13:24:18;15.60;;;3.70;;
19495;SDS011;9888;48.606;9.630;2023-05-31T13:26:52;10.57;;;3.63;;
19495;SDS011;9888;48.606;9.630;2023-05-31T13:29:19;8.93;;;3.50;;
19495;SDS011;9888;48.606;9.630;2023-05-31T13:31:50;8.83;;;3.60;;
19495;SDS011;9888;48.606;9.630;2023-05-31T13:34:18;8.23;;;3.47;;
19495;SDS011;9888;48.606;9.630;2023-05-31T13:36:45;10.50;;;4.13;;
19495;SDS011;9888;48.606;9.630;2023-05-31T13:39:13;8.60;;;4.00;;
19495;SDS011;9888;48.606;9.630;2023-05-31T13:41:45;12.60;;;3.60;;
19495;SDS011;9888;48.606;9.630;2023-05-31T13:44:14;9.03;;;4.10;;
19495;SDS011;9888;48.606;9.630;2023-05-31T13:46:42;9.57;;;3.43;;
19495;SDS011;9888;48.606;9.630;2023-05-31T13:49:09;8.87;;;4.10;;
19495;SDS011;9888;48.606;9.630;2023-05-31T13:51:39;11.40;;;3.70;;
19495;SDS011;9888;48.606;9.630;2023-05-31T13:54:06;7.97;;;3.27;;
19495;SDS011;9888;48.606;9.630;2023-05-31T13:56:33;8.10;;;3.70;;
19495;SDS011;9888;48.606;9.630;2023-05-31T13:59:07;9.10;;;3.80;;
19495;SDS011;9888;48.606;9.630;2023-05-31T14:01:35;8.97;;;3.53;;
19495;SDS011;9888;48.606;9.630;2023-05-31T14:04:03;10.47;;;3.50;;
19495;SDS011;9888;48.606;9.630;2023-05-31T14:06:30;9.57;;;3.73;;
19495;SDS011;9888;48.606;9.630;2023-05-31T14:08:58;13.30;;;3.77;;
19495;SDS011;9888;48.606;9.630;2023-05-31T14:11:25;10.50;;;3.50;;
19495;SDS011;9888;48.606;9.630;2023-05-31T14:13:52;11.67;;;4.00;;
19495;SDS011;9888;48.606;9.630;2023-05-31T14:16:19;10.03;;;3.80;;
19495;SDS011;9888;48.606;9.630;2023-05-31T14:18:46;12.93;;;4.00;;
19495;SDS011;9888;48.606;9.630;2023-05-31T14:21:14;9.73;;;3.63;;
19495;SDS011;9888;48.606;9.630;2023-05-31T14:23:41;15.37;;;4.23;;
19495;SDS011;9888;48.606;9.630;2023-05-31T14:26:08;8.93;;;3.87;;
19495;SDS011;9888;48.606;9.630;2023-05-31T14:28:35;10.37;;;3.93;;
19495;SDS011;9888;48.606;9.630;2023-05-31T14:31:02;16.80;;;4.17;;
19495;SDS011;9888;48.606;9.630;2023-05-31T14:33:29;11.60;;;3.87;;
19495;SDS011;9888;48.606;9.630;2023-05-31T14:35:59;11.50;;;3.90;;
19495;SDS011;9888;48.606;9.630;2023-05-31T14:38:29;10.00;;;3.83;;
19495;SDS011;9888;48.606;9.630;2023-05-31T14:40:56;10.03;;;3.57;;
19495;SDS011;9888;48.606;9.630;2023-05-31T14:43:23;10.37;;;3.10;;
19495;SDS011;9888;48.606;9.630;2023-05-31T14:45:51;10.83;;;3.17;;
19495;SDS011;9888;48.606;9.630;2023-05-31T14:48:18;8.63;;;3.70;;
19495;SDS011;9888;48.606;9.630;2023-05-31T14:50:46;12.47;;;4.00;;
19495;SDS011;9888;48.606;9.630;2023-05-31T14:53:12;10.33;;;3.93;;
19495;SDS011;9888;48.606;9.630;2023-05-31T14:55:40;12.50;;;4.40;;
19495;SDS011;9888;48.606;9.630;2023-05-31T14:58:07;10.57;;;3.90;;
19495;SDS011;9888;48.606;9.630;2023-05-31T15:00:35;14.53;;;3.93;;
19495;SDS011;9888;48.606;9.630;2023-05-31T15:03:03;12.63;;;4.00;;
19495;SDS011;9888;48.606;9.630;2023-05-31T15:05:30;9.60;;;3.83;;
19495;SDS011;9888;48.606;9.630;2023-05-31T15:07:58;9.37;;;3.60;;
19495;SDS011;9888;48.606;9.630;2023-05-31T15:10:25;10.97;;;4.40;;
19495;SDS011;9888;48.606;9.630;2023-05-31T15:12:54;13.23;;;4.37;;
19495;SDS011;9888;48.606;9.630;2023-05-31T15:15:21;15.00;;;4.43;;
19495;SDS011;9888;48.606;9.630;2023-05-31T15:17:49;15.37;;;4.27;;
19495;SDS011;9888;48.606;9.630;2023-05-31T15:20:21;15.30;;;4.77;;
19495;SDS011;9888;48.606;9.630;2023-05-31T15:22:48;10.70;;;3.90;;
19495;SDS011;9888;48.606;9.630;2023-05-31T15:25:16;12.13;;;4.20;;
19495;SDS011;9888;48.606;9.630;2023-05-31T15:27:45;10.50;;;4.00;;
19495;SDS011;9888;48.606;9.630;2023-05-31T15:30:12;10.27;;;4.20;;
19495;SDS011;9888;48.606;9.630;2023-05-31T15:32:40;10.90;;;4.80;;
19495;SDS011;9888;48.606;9.630;2023-05-31T15:35:07;14.90;;;4.57;;
19495;SDS011;9888;48.606;9.630;2023-05-31T15:37:35;9.80;;;4.37;;
19495;SDS011;9888;48.606;9.630;2023-05-31T15:40:03;16.03;;;5.50;;
19495;SDS011;9888;48.606;9.630;2023-05-31T15:42:41;13.17;;;5.30;;
19495;SDS011;9888;48.606;9.630;2023-05-31T15:45:08;11.90;;;4.80;;
19495;SDS011;9888;48.606;9.630;2023-05-31T15:47:37;11.90;;;5.30;;
19495;SDS011;9888;48.606;9.630;2023-05-31T15:50:05;8.03;;;4.07;;
19495;SDS011;9888;48.606;9.630;2023-05-31T15:52:33;18.97;;;6.80;;